Terminal Aerodrome Forecast
Issued by NWS

Home | Current Version | Previous Version | Text Only | Print | Product List | Glossary On
Versions: 1 2 3 4 5 6 7 8 9 10 11 12 13 14 15 16 17 18 19
000
FTUS46 KPDT 060307 AAB
TAFPSC
TAF AMD
KPSC 060307Z 0603/0624 12006KT P6SM SCT025 OVC040
     FM060500 31006KT 6SM BR OVC015
     FM061200 31009KT 3SM -SN BR OVC015
     FM061600 32008KT P6SM VCSH OVC015
     FM062100 33010KT P6SM BKN050=

USA.gov is the U.S. government's official web portal to all federal, state and local government web resources and services.